Presidente Castro Pinto International Airport

SBJP · Paraíba, 巴西

罗盘
风向 的 风向 110° Presidente Castro Pinto International Airport 16/34
风: 10 kt, 3 beaufort

9 kt

4 kt
改变
0 ft 1.000 2.000 3.000 4.000 5.000
Cloud Cloud
FEW 3.000
METAR SBJP 191700Z 11010KT 9999 FEW030 32/24 Q1010

METAR Presidente Castro Pinto International Airport - SBJP/JPA

Presidente Castro Pinto International Airport是,巴西中的中型机场。 该机场位于纬度-7,14858和经度-34,95065。 该机场有一条跑道: 16/34. 本场的ICAO机场代码为SBJP。 该机场的IATA代码为JPA。 机场在Recife FIR中。

该航空气象观测是针对Presidente Castro Pinto International Airport在2024年4月19日 14:00, 当地时间进行的。

机场观察

风向为110°,速度为10 kt。

可见度为10 km 或者更多。

有几云在3.000 ft的高度。 没有观察到天花板。

温度和风寒是32 °C。 热指数为38。 露点为24 °C,相对湿度为63%。 海平面上的气压为1010 hPa (QNH)。

白天

今天,太阳从05:21升起,在17:16降落。 这适用于Presidente Castro Pinto International Airport,世界夏令时可能有所不同。 当地时间与世界标准时间之间的时差为-3 小时。 夏令时目前正在进行中。

公司介绍

我们没有关于这个机场的公司信息。

体会

到Vliegles.nl去找飞行课程,跳伞和其他飞行体验。 浏览页面,了解Presidente Castro Pinto International Airport附近所有可用的活动。 你也可以使用搜索功能来寻找你所在地附近的特定飞行课程、跳伞或其他飞行体验。

跑道

Id 标题 侧风 逆风 侧风 %
16/34 136°-316° 4 kt 9 kt 44 %

逆风成分最大的方向会被突出显示,并用于横风计算。 这并不一定意味着这个方向在使用。

乌云

3.000 ft FEW 几云

温度 & 天气

温度 32 °C
露点 24 °C
相对湿度 63%
热度指数 38 °C
Kp-index 5 (0-9)

白天

日出
05:21
中午
11:18
日落
17:16 (2:31)

小工具

你想在你的网站上有一个关于Presidente Castro Pinto International Airport的当前航空天气(METAR)的小部件吗?

显示HTML代码
报告变更